Time;durP1;ratioP1;P1;durP2;ratioP2;P2;SDS_P1;SDS_P2;PMS_P1;PMS_P2;Temp;Humidity;BMP_temperature;BMP_pressure;BME280_temperature;BME280_humidity;BME280_pressure;Samples;Min_cycle;Max_cycle;Signal;HPM_P1;HPM_P2
2022/04/30 00:00:20;;;;;;;21.80;11.60;;;3.60;99.90;;;;;;5096234;28;20028;-75
2022/04/30 00:02:45;;;;;;;20.70;11.40;;;3.50;99.90;;;;;;5096273;28;20024;-78
2022/04/30 00:05:12;;;;;;;22.42;13.02;;;3.40;99.90;;;;;;5077924;28;20460;-74
2022/04/30 00:07:37;;;;;;;18.65;11.00;;;3.40;99.90;;;;;;5096069;28;20061;-75
2022/04/30 00:10:03;;;;;;;23.60;13.38;;;3.40;99.90;;;;;;5096173;28;20058;-77
2022/04/30 00:12:31;;;;;;;26.48;13.32;;;3.40;99.70;;;;;;5096072;28;20027;-75
2022/04/30 00:14:57;;;;;;;25.45;13.82;;;3.30;99.00;;;;;;5077940;28;20119;-77
2022/04/30 00:17:23;;;;;;;23.02;11.85;;;3.30;99.20;;;;;;5095840;28;20012;-78
2022/04/30 00:19:49;;;;;;;20.35;12.02;;;3.30;98.60;;;;;;5096015;28;20473;-78
2022/04/30 00:22:14;;;;;;;28.27;14.65;;;3.30;97.90;;;;;;5095946;28;20078;-75
2022/04/30 00:24:40;;;;;;;39.17;18.85;;;3.30;97.60;;;;;;5095078;28;20044;-79
2022/04/30 00:27:06;;;;;;;45.85;21.02;;;3.30;97.60;;;;;;5077594;28;20481;-78
2022/04/30 00:29:32;;;;;;;39.53;18.58;;;3.30;97.40;;;;;;5095793;28;20043;-75
2022/04/30 00:32:00;;;;;;;39.95;18.65;;;3.30;97.80;;;;;;5095661;28;20473;-78
2022/04/30 00:34:26;;;;;;;34.10;16.48;;;3.30;98.50;;;;;;5095506;28;20064;-74
2022/04/30 00:36:51;;;;;;;32.10;14.88;;;3.20;98.20;;;;;;5095580;28;20059;-79
2022/04/30 00:39:17;;;;;;;27.70;14.68;;;3.30;97.00;;;;;;5095604;28;20038;-79
2022/04/30 00:41:44;;;;;;;22.92;12.80;;;3.20;96.40;;;;;;5095435;28;20024;-79
2022/04/30 00:44:11;;;;;;;24.02;13.25;;;3.20;96.30;;;;;;5077215;28;20020;-78
2022/04/30 00:46:36;;;;;;;27.10;10.88;;;3.20;96.80;;;;;;5077121;28;20074;-75
2022/04/30 00:49:03;;;;;;;26.92;14.00;;;3.20;95.70;;;;;;5095316;28;20032;-79
2022/04/30 00:51:28;;;;;;;41.75;20.63;;;3.10;95.90;;;;;;5095252;28;20020;-78
2022/04/30 00:53:55;;;;;;;33.70;18.70;;;3.10;98.40;;;;;;5095201;28;20434;-75
2022/04/30 00:56:29;;;;;;;33.45;18.25;;;3.10;99.10;;;;;;5095223;28;20031;-78
2022/04/30 00:58:56;;;;;;;27.45;15.45;;;3.10;99.20;;;;;;5095212;28;20101;-77
2022/04/30 01:01:24;;;;;;;28.00;14.73;;;3.00;98.50;;;;;;5076936;28;20386;-78
2022/04/30 01:03:49;;;;;;;23.73;13.45;;;3.00;98.50;;;;;;5095080;28;20020;-74
2022/04/30 01:06:16;;;;;;;25.98;13.23;;;2.90;99.40;;;;;;5095105;28;20401;-75
2022/04/30 01:08:41;;;;;;;23.40;12.70;;;2.90;99.90;;;;;;5076814;28;20051;-78
2022/04/30 01:11:07;;;;;;;23.35;13.23;;;2.90;99.90;;;;;;5095136;28;20017;-78
2022/04/30 01:13:35;;;;;;;23.42;12.15;;;2.80;99.90;;;;;;5076066;28;20423;-78
2022/04/30 01:16:03;;;;;;;24.88;12.23;;;2.70;99.90;;;;;;5094604;28;20035;-78
2022/04/30 01:18:29;;;;;;;17.63;11.55;;;2.70;99.90;;;;;;5094725;28;20044;-78
2022/04/30 01:21:01;;;;;;;20.65;12.15;;;2.70;99.90;;;;;;5094675;28;20069;-78
2022/04/30 01:23:27;;;;;;;23.73;12.55;;;2.70;99.90;;;;;;5094366;28;20508;-78
2022/04/30 01:25:53;;;;;;;26.42;12.73;;;2.60;99.90;;;;;;5093221;28;20036;-77
2022/04/30 01:28:20;;;;;;;27.05;13.18;;;2.60;99.90;;;;;;5094592;28;20023;-75
2022/04/30 01:30:47;;;;;;;21.65;12.93;;;2.60;99.90;;;;;;5076377;28;20481;-78
2022/04/30 01:38:41;;;;;;;17.05;10.65;;;2.50;99.90;;;;;;5094548;28;20102;-73
2022/04/30 01:41:06;;;;;;;17.90;9.98;;;2.50;99.90;;;;;;5093017;28;20046;-78
2022/04/30 01:43:35;;;;;;;15.43;9.38;;;2.50;99.90;;;;;;5094230;28;20056;-77
2022/04/30 01:46:03;;;;;;;19.73;10.60;;;2.50;99.90;;;;;;5094004;28;20063;-76
2022/04/30 01:48:29;;;;;;;18.08;9.95;;;2.50;99.90;;;;;;5092763;28;20101;-75
2022/04/30 01:50:56;;;;;;;15.30;9.13;;;2.40;99.90;;;;;;5092668;28;20530;-78
2022/04/30 01:53:21;;;;;;;18.85;11.20;;;2.40;99.90;;;;;;5094016;28;20020;-77
2022/04/30 01:55:47;;;;;;;19.75;11.38;;;2.40;99.90;;;;;;5092715;28;20024;-78
2022/04/30 01:58:13;;;;;;;21.65;11.50;;;2.40;99.90;;;;;;5093960;28;20032;-77
2022/04/30 02:00:39;;;;;;;22.75;12.55;;;2.30;99.90;;;;;;5092625;28;20012;-77
2022/04/30 02:03:09;;;;;;;18.70;11.48;;;2.30;99.90;;;;;;5092392;28;20111;-78
2022/04/30 02:05:37;;;;;;;24.63;12.10;;;2.20;99.90;;;;;;5075586;28;20134;-77
2022/04/30 02:08:08;;;;;;;19.38;10.75;;;2.20;99.90;;;;;;5093622;28;20067;-75
2022/04/30 02:10:39;;;;;;;23.75;11.50;;;2.20;99.90;;;;;;5093676;28;20020;-78
2022/04/30 02:13:09;;;;;;;21.73;11.48;;;2.10;99.90;;;;;;5092414;28;20020;-79
2022/04/30 02:15:36;;;;;;;18.40;10.68;;;2.10;99.90;;;;;;5093621;28;20028;-75
2022/04/30 02:18:06;;;;;;;17.48;10.65;;;2.10;99.90;;;;;;5093412;28;20023;-75
2022/04/30 02:20:34;;;;;;;20.40;10.40;;;2.10;99.90;;;;;;5093381;28;20481;-78
2022/04/30 02:23:08;;;;;;;20.20;11.07;;;2.10;99.90;;;;;;5092024;28;20022;-75
2022/04/30 02:25:35;;;;;;;19.58;10.82;;;2.00;99.90;;;;;;5093447;28;20123;-75
2022/04/30 02:28:08;;;;;;;21.05;10.48;;;2.00;99.90;;;;;;5093368;28;20020;-75
2022/04/30 02:30:36;;;;;;;15.18;9.57;;;2.00;99.90;;;;;;5093377;28;20046;-75
2022/04/30 02:33:06;;;;;;;18.88;10.65;;;1.90;99.90;;;;;;5093586;28;20024;-78
2022/04/30 02:35:34;;;;;;;18.23;10.38;;;1.90;99.90;;;;;;5092191;28;20048;-75
2022/04/30 02:38:01;;;;;;;24.20;11.40;;;1.90;99.90;;;;;;5075124;28;20107;-75
2022/04/30 02:40:28;;;;;;;19.85;11.25;;;1.90;99.90;;;;;;5093417;28;20046;-78
2022/04/30 02:42:54;;;;;;;19.95;11.35;;;1.90;99.90;;;;;;5093264;28;20058;-79
2022/04/30 02:45:21;;;;;;;18.92;10.55;;;1.80;99.90;;;;;;5091801;28;20110;-78
2022/04/30 02:47:53;;;;;;;18.88;10.82;;;1.80;99.90;;;;;;5074992;28;20028;-78
2022/04/30 02:50:19;;;;;;;19.80;10.37;;;1.80;99.90;;;;;;5091760;28;20030;-75
2022/04/30 02:52:45;;;;;;;21.88;10.57;;;1.70;99.90;;;;;;5091807;28;20028;-76
2022/04/30 02:55:12;;;;;;;18.52;10.68;;;1.70;99.90;;;;;;5093097;28;20506;-77
2022/04/30 03:00:29;;;;;;;14.50;8.57;;;1.60;99.90;;;;;;5093294;28;20086;-78
2022/04/30 03:02:55;;;;;;;11.77;7.45;;;1.60;99.90;;;;;;5092936;28;20016;-78
2022/04/30 03:05:21;;;;;;;11.57;6.65;;;1.60;99.90;;;;;;5091564;28;20057;-79
2022/04/30 03:07:47;;;;;;;13.88;6.80;;;1.60;99.90;;;;;;5091662;28;20028;-77
2022/04/30 03:10:14;;;;;;;12.43;7.40;;;1.60;99.90;;;;;;5093022;28;20461;-77
2022/04/30 03:12:39;;;;;;;13.30;6.82;;;1.60;99.90;;;;;;5091637;28;20021;-74
2022/04/30 03:15:06;;;;;;;11.57;5.97;;;1.60;99.90;;;;;;5091598;28;20028;-77
2022/04/30 03:23:00;;;;;;;13.27;7.05;;;1.60;99.90;;;;;;5092692;28;20066;-78
2022/04/30 03:25:26;;;;;;;15.90;8.32;;;1.60;99.90;;;;;;5092842;28;20056;-75
2022/04/30 03:27:51;;;;;;;13.98;7.30;;;1.60;99.90;;;;;;5091403;28;20123;-75
2022/04/30 03:30:17;;;;;;;13.40;8.75;;;1.60;99.90;;;;;;5091505;28;20028;-74
2022/04/30 03:32:42;;;;;;;15.32;7.90;;;1.60;99.90;;;;;;5091464;28;20111;-77
2022/04/30 03:35:09;;;;;;;14.85;7.38;;;1.60;99.90;;;;;;5092858;28;20020;-77
2022/04/30 03:37:35;;;;;;;17.27;9.52;;;1.60;99.90;;;;;;5092640;28;20035;-74
2022/04/30 03:40:01;;;;;;;17.75;8.82;;;1.60;99.90;;;;;;5092648;28;20405;-74
2022/04/30 03:42:28;;;;;;;17.75;10.10;;;1.60;99.90;;;;;;5092752;28;20028;-78
2022/04/30 03:44:53;;;;;;;15.00;8.52;;;1.60;99.90;;;;;;5092690;28;20032;-74
2022/04/30 03:47:20;;;;;;;18.15;8.68;;;1.60;99.90;;;;;;5091301;28;20385;-77
2022/04/30 03:49:46;;;;;;;15.35;8.77;;;1.60;99.90;;;;;;5092677;28;20016;-77
2022/04/30 03:52:12;;;;;;;13.35;8.38;;;1.60;99.90;;;;;;5091452;28;20031;-78
2022/04/30 03:54:39;;;;;;;13.77;7.13;;;1.60;99.90;;;;;;5092602;28;20477;-74
2022/04/30 03:57:05;;;;;;;20.60;9.82;;;1.60;99.90;;;;;;5074468;28;20090;-77
2022/04/30 03:59:31;;;;;;;21.42;11.43;;;1.70;99.90;;;;;;5094838;28;20112;-77
2022/04/30 04:01:58;;;;;;;28.08;11.73;;;1.80;99.90;;;;;;5077886;28;20107;-76
2022/04/30 04:04:24;;;;;;;24.23;11.77;;;2.00;99.90;;;;;;5077765;28;20030;-75
2022/04/30 04:06:49;;;;;;;17.50;9.70;;;2.20;99.90;;;;;;5094839;28;20024;-78
2022/04/30 04:09:15;;;;;;;16.70;8.13;;;2.30;99.90;;;;;;5096179;28;20381;-75
2022/04/30 04:11:40;;;;;;;12.30;7.22;;;2.40;99.90;;;;;;5096201;28;20027;-76
2022/04/30 04:19:34;;;;;;;21.63;9.40;;;2.80;99.90;;;;;;5096268;28;20094;-77
2022/04/30 04:22:00;;;;;;;41.83;15.40;;;2.90;99.90;;;;;;5094634;28;20056;-78
2022/04/30 04:27:10;;;;;;;41.75;18.25;;;3.20;99.90;;;;;;5096192;28;20405;-75
2022/04/30 04:29:35;;;;;;;30.73;14.95;;;3.30;99.90;;;;;;5095608;28;20107;-77
2022/04/30 04:32:01;;;;;;;29.55;12.13;;;3.50;99.90;;;;;;5094382;28;20026;-75
2022/04/30 04:34:27;;;;;;;30.67;14.40;;;3.60;99.90;;;;;;5094274;28;20107;-74
2022/04/30 04:36:52;;;;;;;22.73;9.55;;;3.80;99.10;;;;;;5095597;28;20385;-75
2022/04/30 04:39:18;;;;;;;16.58;8.95;;;4.00;98.00;;;;;;5094125;28;20055;-75
2022/04/30 04:41:43;;;;;;;23.25;11.48;;;4.20;96.40;;;;;;5094072;28;20032;-76
2022/04/30 04:44:10;;;;;;;25.02;12.02;;;4.40;94.70;;;;;;5094006;28;20031;-75
2022/04/30 04:46:38;;;;;;;22.13;12.80;;;4.50;93.80;;;;;;5093368;28;20043;-75
2022/04/30 04:49:04;;;;;;;29.70;12.43;;;4.70;94.80;;;;;;5084473;28;20392;-76
2022/04/30 04:51:30;;;;;;;27.75;15.27;;;4.80;96.30;;;;;;5082368;28;20028;-76
2022/04/30 04:53:56;;;;;;;19.17;11.00;;;5.00;95.50;;;;;;5080483;28;20106;-76
2022/04/30 04:56:23;;;;;;;19.00;10.88;;;5.20;95.70;;;;;;5079944;28;20020;-75
2022/04/30 04:58:48;;;;;;;19.92;10.88;;;5.50;97.20;;;;;;5040099;28;20029;-75
2022/04/30 05:01:14;;;;;;;16.35;8.48;;;5.70;98.60;;;;;;5056864;28;20073;-75
2022/04/30 05:03:40;;;;;;;15.95;8.38;;;5.90;99.90;;;;;;5073226;28;20104;-75
2022/04/30 05:06:05;;;;;;;14.88;7.72;;;6.10;99.90;;;;;;5074584;28;20078;-75
2022/04/30 05:08:31;;;;;;;16.08;10.40;;;6.30;99.90;;;;;;5074625;28;20518;-75
2022/04/30 05:10:56;;;;;;;34.65;19.27;;;6.50;99.90;;;;;;5073416;28;20020;-75
2022/04/30 05:13:22;;;;;;;61.70;36.58;;;6.70;99.90;;;;;;5074461;28;20134;-75
2022/04/30 05:15:47;;;;;;;29.27;18.88;;;6.90;99.90;;;;;;5074537;28;20024;-75
2022/04/30 05:18:13;;;;;;;42.22;25.45;;;7.10;99.90;;;;;;5075585;28;20369;-76
2022/04/30 05:20:39;;;;;;;29.13;15.27;;;7.50;99.90;;;;;;5075372;28;20054;-77
2022/04/30 05:23:05;;;;;;;10.90;7.60;;;7.80;90.20;;;;;;5074254;28;20082;-76
2022/04/30 05:25:31;;;;;;;12.57;7.28;;;8.20;76.10;;;;;;5079284;28;20051;-76
2022/04/30 05:27:56;;;;;;;16.23;7.97;;;8.40;74.10;;;;;;5087711;28;20107;-76
2022/04/30 05:30:22;;;;;;;15.30;10.07;;;8.70;74.40;;;;;;5086197;28;20135;-76
2022/04/30 05:32:48;;;;;;;15.00;8.27;;;8.90;74.30;;;;;;5089358;28;20476;-76
2022/04/30 05:35:14;;;;;;;12.50;8.50;;;9.10;74.70;;;;;;5085407;28;20051;-75
2022/04/30 05:37:40;;;;;;;21.50;13.50;;;9.30;74.50;;;;;;5082944;28;20370;-76
2022/04/30 05:40:06;;;;;;;16.63;11.88;;;9.50;71.50;;;;;;5086458;28;20028;-76
2022/04/30 05:42:32;;;;;;;18.92;12.88;;;9.50;68.90;;;;;;5093284;28;20095;-76
2022/04/30 05:44:58;;;;;;;19.70;12.00;;;9.70;68.20;;;;;;5081286;28;20112;-79
2022/04/30 05:47:24;;;;;;;27.70;18.55;;;9.90;67.70;;;;;;5078425;28;20485;-79
2022/04/30 05:49:50;;;;;;;36.60;23.23;;;10.10;67.20;;;;;;5073264;28;20029;-75
2022/04/30 05:52:16;;;;;;;23.15;14.25;;;10.30;67.50;;;;;;5055044;28;20555;-80
2022/04/30 05:54:41;;;;;;;15.90;9.38;;;10.50;67.60;;;;;;5073406;28;20102;-77
2022/04/30 05:57:07;;;;;;;32.30;18.65;;;10.80;66.60;;;;;;5055253;28;20021;-81
2022/04/30 05:59:33;;;;;;;22.30;13.20;;;10.90;64.20;;;;;;5073294;28;20487;-81
2022/04/30 06:01:58;;;;;;;23.13;12.23;;;11.20;62.20;;;;;;5055608;28;20471;-81
2022/04/30 06:04:24;;;;;;;22.40;12.65;;;11.30;60.30;;;;;;5072562;28;20523;-81
2022/04/30 06:06:50;;;;;;;32.58;17.58;;;11.50;60.30;;;;;;5073464;28;20056;-76
2022/04/30 06:09:15;;;;;;;16.77;10.15;;;11.60;58.90;;;;;;5073221;28;20025;-76
2022/04/30 06:11:41;;;;;;;20.25;11.75;;;11.70;58.10;;;;;;5072300;28;20066;-76
2022/04/30 06:14:07;;;;;;;21.80;11.07;;;11.70;57.60;;;;;;5071555;28;20478;-76
2022/04/30 06:16:33;;;;;;;23.27;11.75;;;11.80;56.30;;;;;;5055224;28;20493;-76
2022/04/30 06:18:58;;;;;;;23.33;13.40;;;12.00;55.90;;;;;;5072624;28;20482;-76
2022/04/30 06:21:24;;;;;;;22.10;10.57;;;12.00;54.70;;;;;;5072725;28;20028;-80
2022/04/30 06:23:50;;;;;;;17.88;10.43;;;12.20;54.70;;;;;;5043220;28;20407;-80
2022/04/30 06:26:16;;;;;;;20.05;8.18;;;12.20;54.50;;;;;;5033275;28;20034;-76
2022/04/30 06:28:42;;;;;;;12.95;6.57;;;12.30;53.40;;;;;;5033054;28;20067;-77
2022/04/30 06:31:07;;;;;;;11.70;6.85;;;12.30;53.70;;;;;;5033059;28;20032;-77
2022/04/30 06:33:33;;;;;;;10.35;6.70;;;12.50;53.80;;;;;;5047764;28;20433;-76
2022/04/30 06:35:59;;;;;;;20.38;12.15;;;12.50;52.40;;;;;;5031740;28;20021;-76
2022/04/30 06:38:25;;;;;;;14.00;8.40;;;12.60;52.50;;;;;;5033003;28;20088;-76
2022/04/30 06:40:51;;;;;;;9.98;5.57;;;12.70;50.90;;;;;;5033238;28;20041;-76
2022/04/30 06:43:16;;;;;;;8.23;5.28;;;12.70;50.50;;;;;;5031450;28;20014;-74
2022/04/30 06:45:43;;;;;;;13.65;7.25;;;12.80;50.50;;;;;;5048194;28;20429;-75
2022/04/30 06:48:08;;;;;;;7.75;4.38;;;12.90;50.70;;;;;;5032383;28;20052;-74
2022/04/30 06:50:34;;;;;;;9.45;4.70;;;13.00;49.80;;;;;;5031567;28;20431;-74
2022/04/30 06:58:40;;;;;;;11.98;4.45;;;13.10;47.30;;;;;;5032970;28;20095;-75
2022/04/30 07:01:26;;;;;;;6.28;3.90;;;13.10;46.10;;;;;;5031711;28;20088;-80
2022/04/30 07:03:55;;;;;;;4.80;3.30;;;13.10;44.90;;;;;;5050075;28;20179;-79
2022/04/30 07:06:21;;;;;;;5.07;3.22;;;12.90;42.80;;;;;;5059064;28;20045;-78
2022/04/30 07:08:47;;;;;;;6.35;3.30;;;12.90;42.40;;;;;;5042149;28;20024;-78
2022/04/30 07:11:13;;;;;;;5.85;3.55;;;13.00;42.20;;;;;;5041458;28;20387;-79
2022/04/30 07:13:38;;;;;;;7.50;4.05;;;13.00;42.30;;;;;;5056273;28;20033;-78
2022/04/30 07:16:04;;;;;;;9.05;3.50;;;13.00;42.30;;;;;;5040530;28;20494;-79
2022/04/30 07:18:30;;;;;;;6.88;3.42;;;13.20;42.90;;;;;;5039102;28;20072;-80
2022/04/30 07:20:56;;;;;;;7.28;3.78;;;13.20;42.60;;;;;;5043018;28;20036;-79
2022/04/30 07:23:22;;;;;;;8.77;3.78;;;13.20;41.70;;;;;;5047980;28;20052;-79
2022/04/30 07:25:48;;;;;;;6.30;3.85;;;13.20;42.10;;;;;;5082531;28;20114;-78
2022/04/30 07:28:14;;;;;;;7.32;4.45;;;13.10;41.30;;;;;;5074560;28;20024;-75
2022/04/30 07:30:42;;;;;;;8.07;4.43;;;13.30;41.10;;;;;;5057737;28;20032;-77
2022/04/30 07:33:07;;;;;;;8.93;4.15;;;13.40;41.70;;;;;;5081749;28;20032;-79
2022/04/30 07:35:33;;;;;;;11.75;5.35;;;13.40;41.90;;;;;;5074858;28;20014;-79
2022/04/30 07:37:59;;;;;;;14.45;4.60;;;13.40;42.40;;;;;;5085932;28;20327;-79
2022/04/30 07:40:24;;;;;;;6.40;3.95;;;13.50;42.10;;;;;;5084951;28;20142;-79
2022/04/30 07:42:50;;;;;;;10.63;4.32;;;13.50;41.50;;;;;;5086869;28;20085;-79
2022/04/30 07:45:17;;;;;;;6.70;4.13;;;13.40;41.90;;;;;;5085303;28;20035;-79
2022/04/30 07:47:43;;;;;;;6.22;4.47;;;13.60;42.30;;;;;;5086052;28;20058;-79
2022/04/30 07:50:10;;;;;;;8.65;5.53;;;13.70;41.50;;;;;;5058052;28;20462;-79
2022/04/30 07:52:36;;;;;;;10.25;4.85;;;13.70;41.30;;;;;;5065287;28;20031;-79
2022/04/30 07:55:02;;;;;;;7.78;4.63;;;13.80;41.40;;;;;;5067454;28;20017;-78
2022/04/30 07:57:28;;;;;;;7.82;4.13;;;13.60;40.60;;;;;;5084385;28;20024;-78
2022/04/30 07:59:54;;;;;;;9.50;4.43;;;13.60;40.50;;;;;;5083060;28;20016;-79
2022/04/30 08:02:20;;;;;;;11.27;4.72;;;13.80;41.30;;;;;;5083801;28;20028;-79
2022/04/30 08:04:46;;;;;;;6.20;4.20;;;13.90;41.30;;;;;;5084628;28;20470;-79
2022/04/30 08:07:12;;;;;;;4.88;4.20;;;13.80;41.20;;;;;;5079955;28;20103;-79
2022/04/30 08:09:38;;;;;;;7.55;4.43;;;13.90;41.50;;;;;;5078742;28;20116;-75
2022/04/30 08:12:04;;;;;;;8.90;4.78;;;14.00;40.90;;;;;;5041120;28;20016;-76
2022/04/30 08:14:29;;;;;;;7.95;4.97;;;14.00;40.70;;;;;;5084873;28;20417;-81
2022/04/30 08:16:55;;;;;;;10.38;6.00;;;13.90;40.40;;;;;;5083710;28;20111;-80
2022/04/30 08:19:21;;;;;;;8.55;4.57;;;13.90;40.80;;;;;;5062499;28;20488;-74
2022/04/30 08:21:48;;;;;;;8.93;4.63;;;14.10;41.30;;;;;;5087680;28;20107;-75
2022/04/30 08:24:14;;;;;;;11.02;4.93;;;14.10;40.80;;;;;;5095763;28;20044;-81
2022/04/30 08:26:44;;;;;;;7.40;4.32;;;14.20;40.70;;;;;;5095476;28;20096;-75
2022/04/30 08:29:11;;;;;;;6.72;4.35;;;14.30;40.60;;;;;;5077668;28;20024;-79
2022/04/30 08:31:38;;;;;;;7.03;4.03;;;14.40;41.00;;;;;;5091827;28;20036;-75
2022/04/30 08:34:04;;;;;;;7.32;4.25;;;14.50;41.10;;;;;;5075214;28;20035;-75
2022/04/30 08:36:30;;;;;;;10.75;5.18;;;14.60;40.40;;;;;;5093246;28;20032;-75
2022/04/30 08:38:56;;;;;;;8.93;4.40;;;14.40;39.90;;;;;;5075460;28;20054;-75
2022/04/30 08:41:22;;;;;;;7.72;4.45;;;14.30;39.70;;;;;;5094191;28;20040;-79
2022/04/30 08:43:48;;;;;;;10.10;4.97;;;14.50;40.20;;;;;;5094078;28;20090;-79
2022/04/30 08:46:19;;;;;;;6.63;4.60;;;14.60;39.70;;;;;;5093896;28;20056;-79
2022/04/30 08:48:46;;;;;;;7.13;4.93;;;14.80;39.50;;;;;;5079471;28;20112;-79
2022/04/30 08:51:16;;;;;;;11.10;5.00;;;15.00;39.50;;;;;;5055905;28;20031;-78
2022/04/30 08:53:42;;;;;;;8.00;4.28;;;14.80;39.20;;;;;;5074503;28;20122;-78
2022/04/30 08:56:08;;;;;;;7.50;4.47;;;14.80;39.90;;;;;;5074060;28;20121;-80
2022/04/30 08:58:36;;;;;;;7.55;4.72;;;14.80;39.40;;;;;;5077426;28;20025;-79
2022/04/30 09:01:03;;;;;;;8.00;5.57;;;14.80;39.80;;;;;;5082136;28;20024;-79
2022/04/30 09:03:34;;;;;;;11.05;5.38;;;14.70;39.50;;;;;;5073317;28;20056;-80
2022/04/30 09:06:00;;;;;;;9.75;5.07;;;14.60;39.20;;;;;;5088466;28;20036;-79
2022/04/30 09:08:26;;;;;;;7.90;5.20;;;14.70;39.60;;;;;;5070089;28;20488;-79
2022/04/30 09:10:52;;;;;;;10.68;5.55;;;15.00;39.60;;;;;;5093577;28;20032;-79
2022/04/30 09:13:18;;;;;;;7.07;4.82;;;15.30;39.60;;;;;;5077079;28;20073;-79
2022/04/30 09:15:46;;;;;;;6.85;4.95;;;15.40;40.50;;;;;;5054564;28;20023;-80
2022/04/30 09:18:17;;;;;;;9.73;4.97;;;15.50;40.20;;;;;;5073614;28;20020;-80
2022/04/30 09:20:47;;;;;;;7.82;5.15;;;15.50;40.00;;;;;;5089844;28;20172;-78
2022/04/30 09:23:26;;;;;;;11.98;5.13;;;15.50;39.80;;;;;;5074319;28;20040;-81
2022/04/30 09:25:57;;;;;;;8.23;4.78;;;15.50;39.70;;;;;;5091204;28;20067;-79
2022/04/30 09:28:28;;;;;;;7.18;5.03;;;15.50;38.80;;;;;;5074167;28;20071;-80
2022/04/30 09:31:14;;;;;;;8.27;5.07;;;15.40;38.70;;;;;;5074776;28;20043;-79
2022/04/30 09:33:57;;;;;;;8.85;4.78;;;15.40;39.30;;;;;;5070753;28;20036;-75
2022/04/30 09:39:16;;;;;;;8.25;4.50;;;15.70;39.70;;;;;;5073056;28;20094;-79
2022/04/30 09:41:42;;;;;;;12.18;6.50;;;15.40;39.50;;;;;;5073455;28;20042;-79
2022/04/30 09:44:10;;;;;;;6.53;4.68;;;15.40;39.40;;;;;;5072895;28;20045;-74
2022/04/30 09:46:40;;;;;;;8.02;5.97;;;15.00;39.50;;;;;;5054965;28;20086;-74
2022/04/30 09:54:41;;;;;;;7.35;4.75;;;15.40;38.90;;;;;;5072744;28;20043;-73
2022/04/30 09:57:09;;;;;;;6.88;4.75;;;15.60;39.10;;;;;;5054454;28;20108;-72
2022/04/30 09:59:36;;;;;;;7.82;5.00;;;15.90;38.80;;;;;;5054822;28;20115;-74
2022/04/30 10:02:07;;;;;;;8.55;5.30;;;16.00;39.00;;;;;;5054735;28;20378;-75
2022/04/30 10:04:34;;;;;;;8.02;5.45;;;16.10;38.70;;;;;;5053424;28;20035;-80
2022/04/30 10:07:02;;;;;;;8.27;4.47;;;16.20;38.80;;;;;;5070505;28;20470;-75
2022/04/30 10:09:39;;;;;;;7.20;4.53;;;16.60;39.00;;;;;;5052786;28;20432;-74
2022/04/30 10:12:23;;;;;;;7.65;5.60;;;16.70;37.80;;;;;;5071081;28;20048;-74
2022/04/30 10:15:11;;;;;;;10.70;5.13;;;16.60;37.20;;;;;;5071025;28;20036;-75
2022/04/30 10:17:42;;;;;;;6.97;5.55;;;16.60;37.60;;;;;;5071286;28;20744;-74
2022/04/30 10:20:18;;;;;;;7.93;4.72;;;16.50;38.00;;;;;;5079541;28;20056;-74
2022/04/30 10:22:54;;;;;;;9.15;5.15;;;16.60;39.00;;;;;;5080079;28;20114;-74
2022/04/30 10:25:43;;;;;;;7.13;4.93;;;16.60;39.10;;;;;;5078348;28;20053;-74
2022/04/30 10:28:14;;;;;;;8.65;5.28;;;16.70;39.70;;;;;;5078503;28;20031;-74
2022/04/30 10:30:41;;;;;;;5.30;4.50;;;16.60;38.60;;;;;;5080611;28;20032;-74
2022/04/30 10:33:08;;;;;;;12.88;5.68;;;16.60;39.70;;;;;;5080909;28;20081;-75
2022/04/30 10:35:38;;;;;;;6.22;4.80;;;16.60;39.40;;;;;;5081120;28;20542;-74
2022/04/30 10:38:24;;;;;;;9.32;5.55;;;16.70;40.80;;;;;;5081945;28;20054;-74
2022/04/30 10:40:52;;;;;;;6.40;5.03;;;16.50;39.60;;;;;;5071847;28;20041;-80
2022/04/30 10:43:32;;;;;;;8.57;4.75;;;16.50;39.60;;;;;;5070469;28;20024;-80
2022/04/30 10:45:58;;;;;;;6.10;4.38;;;16.70;39.30;;;;;;5071798;28;20044;-79
2022/04/30 10:48:26;;;;;;;8.98;4.90;;;16.80;39.80;;;;;;5072091;28;20038;-80
2022/04/30 10:51:04;;;;;;;7.60;4.80;;;16.90;39.90;;;;;;5070106;28;20033;-80
2022/04/30 10:53:31;;;;;;;8.07;5.47;;;17.00;39.60;;;;;;5053810;28;20468;-80
2022/04/30 10:55:59;;;;;;;4.93;4.28;;;17.10;39.70;;;;;;5071631;28;20037;-80
2022/04/30 10:58:25;;;;;;;7.03;5.13;;;17.20;38.80;;;;;;5054589;28;20441;-74
2022/04/30 11:00:51;;;;;;;7.95;5.00;;;17.30;38.10;;;;;;5075962;28;20063;-74
2022/04/30 11:03:18;;;;;;;6.68;5.25;;;17.10;37.70;;;;;;5054675;28;20398;-74
2022/04/30 11:05:48;;;;;;;5.72;4.32;;;16.90;36.90;;;;;;5054581;28;20063;-75
2022/04/30 11:08:14;;;;;;;8.07;4.90;;;16.80;37.20;;;;;;5082869;28;20031;-74
2022/04/30 11:10:55;;;;;;;6.32;4.72;;;16.80;38.20;;;;;;5097309;28;20174;-79
2022/04/30 11:13:22;;;;;;;5.75;3.92;;;16.70;37.80;;;;;;5095732;28;20024;-74
2022/04/30 11:15:48;;;;;;;7.38;4.15;;;16.80;38.00;;;;;;5058561;28;20013;-75
2022/04/30 11:18:18;;;;;;;4.88;3.95;;;16.80;37.70;;;;;;5075028;28;20078;-75
2022/04/30 11:20:45;;;;;;;7.35;4.63;;;16.90;38.20;;;;;;5076037;28;20059;-80
2022/04/30 11:23:21;;;;;;;10.90;5.45;;;17.10;39.30;;;;;;5073825;28;20053;-76
2022/04/30 11:25:47;;;;;;;6.90;4.70;;;17.20;39.20;;;;;;5074542;28;20102;-80
2022/04/30 11:28:12;;;;;;;7.93;4.88;;;17.30;39.10;;;;;;5092011;28;20086;-80
2022/04/30 11:30:40;;;;;;;7.47;4.78;;;17.40;39.50;;;;;;5096895;28;20016;-79
2022/04/30 11:33:07;;;;;;;7.82;5.00;;;17.40;38.10;;;;;;5078597;28;20039;-80
2022/04/30 11:35:34;;;;;;;11.02;5.07;;;17.50;39.10;;;;;;5096662;28;20098;-75
2022/04/30 11:37:59;;;;;;;20.25;8.82;;;17.60;38.50;;;;;;5096625;28;20377;-75
2022/04/30 11:40:26;;;;;;;7.13;4.53;;;17.70;38.30;;;;;;5078527;28;20035;-79
2022/04/30 11:42:59;;;;;;;8.80;4.55;;;17.50;37.60;;;;;;5095390;28;20478;-79
2022/04/30 11:45:29;;;;;;;9.30;4.55;;;17.50;38.50;;;;;;5078087;28;20036;-75
2022/04/30 11:47:58;;;;;;;11.07;5.38;;;17.50;38.80;;;;;;5078315;28;20047;-80
2022/04/30 11:50:26;;;;;;;8.50;4.72;;;17.50;37.90;;;;;;5078520;28;20020;-80
2022/04/30 11:52:52;;;;;;;8.02;5.20;;;17.50;37.80;;;;;;5078267;28;20016;-75
2022/04/30 11:55:20;;;;;;;9.63;5.07;;;17.60;38.60;;;;;;5078016;28;20389;-75
2022/04/30 11:57:46;;;;;;;7.97;4.95;;;17.50;38.10;;;;;;5096205;28;20013;-79
2022/04/30 12:00:14;;;;;;;8.80;4.90;;;17.60;38.20;;;;;;5096272;28;20069;-79
2022/04/30 12:02:41;;;;;;;9.63;4.68;;;17.50;37.90;;;;;;5096291;28;20028;-76
2022/04/30 12:05:08;;;;;;;12.23;6.30;;;17.60;37.70;;;;;;5077952;28;20032;-75
2022/04/30 12:07:38;;;;;;;5.72;4.53;;;17.60;36.60;;;;;;5096127;28;20016;-75
2022/04/30 12:10:14;;;;;;;5.88;4.32;;;17.60;36.70;;;;;;5095822;28;20024;-74
2022/04/30 12:12:39;;;;;;;6.63;4.65;;;17.50;36.60;;;;;;5096220;28;20028;-79
2022/04/30 12:15:26;;;;;;;8.55;5.35;;;17.40;37.90;;;;;;5077861;28;20086;-74
2022/04/30 12:27:01;;;;;;;6.00;4.05;;;16.70;37.60;;;;;;5085962;28;20101;-80
2022/04/30 12:29:27;;;;;;;7.20;5.30;;;16.60;37.70;;;;;;5078489;28;20034;-79
2022/04/30 12:31:53;;;;;;;10.23;4.95;;;16.70;38.40;;;;;;5084802;28;20016;-79
2022/04/30 12:34:22;;;;;;;8.55;4.72;;;16.80;38.10;;;;;;5066052;28;20016;-79
2022/04/30 12:36:58;;;;;;;8.18;4.60;;;16.90;37.80;;;;;;5067661;28;20016;-79
2022/04/30 12:39:25;;;;;;;6.20;4.80;;;16.90;37.40;;;;;;5084450;28;20103;-79
2022/04/30 12:41:52;;;;;;;8.00;4.93;;;16.60;37.30;;;;;;5084554;28;20095;-79
2022/04/30 12:44:18;;;;;;;11.05;4.85;;;16.30;38.40;;;;;;5084070;28;20989;-79
2022/04/30 12:46:45;;;;;;;8.13;4.63;;;16.10;38.60;;;;;;5067505;28;20032;-79
2022/04/30 12:49:12;;;;;;;8.18;6.30;;;16.20;38.80;;;;;;5074997;28;20066;-75
2022/04/30 12:51:39;;;;;;;11.55;5.90;;;16.10;39.10;;;;;;5076974;28;20016;-74
2022/04/30 12:54:06;;;;;;;9.02;4.68;;;16.30;39.30;;;;;;5077118;28;20024;-76
2022/04/30 12:56:32;;;;;;;5.07;4.07;;;16.10;39.00;;;;;;5077309;28;20065;-74
2022/04/30 12:58:58;;;;;;;6.13;4.50;;;16.20;39.90;;;;;;5089711;28;20062;-79
2022/04/30 13:01:23;;;;;;;6.85;4.35;;;16.20;39.30;;;;;;5085171;28;20035;-75
2022/04/30 13:03:49;;;;;;;7.07;4.93;;;16.20;39.30;;;;;;5081064;28;20048;-74
2022/04/30 13:06:16;;;;;;;7.70;4.38;;;16.20;39.00;;;;;;5073468;28;20074;-79
2022/04/30 13:14:10;;;;;;;5.78;4.13;;;16.30;38.40;;;;;;5074926;28;20034;-74
2022/04/30 13:16:36;;;;;;;7.72;4.15;;;16.30;39.30;;;;;;5074682;28;20032;-78
2022/04/30 13:19:02;;;;;;;6.07;4.70;;;16.30;39.80;;;;;;5074397;28;20032;-78
2022/04/30 13:21:27;;;;;;;6.45;4.40;;;16.10;39.30;;;;;;5074259;28;20044;-76
2022/04/30 13:23:53;;;;;;;6.85;4.30;;;16.10;39.30;;;;;;5056138;28;20048;-78
2022/04/30 13:26:20;;;;;;;6.30;4.45;;;16.10;39.00;;;;;;5073936;28;20493;-79
2022/04/30 13:28:47;;;;;;;11.50;5.93;;;16.20;38.90;;;;;;5056147;28;20048;-79
2022/04/30 13:31:13;;;;;;;33.13;12.25;;;16.30;38.90;;;;;;5054839;28;20021;-80